Time;durP1;ratioP1;P1;durP2;ratioP2;P2;SDS_P1;SDS_P2;PMS_P1;PMS_P2;Temp;Humidity;BMP_temperature;BMP_pressure;BME280_temperature;BME280_humidity;BME280_pressure;Samples;Min_cycle;Max_cycle;Signal;HPM_P1;HPM_P2
2022/04/05 00:00:58;;;;;;;14.00;12.43;;;;;;;-0.79;96.82;95832.16;6367750;22;20008;-62
2022/04/05 00:03:23;;;;;;;14.23;12.60;;;;;;;-0.79;96.29;95826.13;6367279;22;20059;-62
2022/04/05 00:05:48;;;;;;;12.60;11.13;;;;;;;-0.81;96.30;95827.94;6367069;22;20003;-61
2022/04/05 00:08:16;;;;;;;12.25;11.05;;;;;;;-0.82;96.50;95821.97;6367114;22;20013;-61
2022/04/05 00:10:42;;;;;;;12.68;11.38;;;;;;;-0.83;95.97;95820.28;6367047;22;20069;-61
2022/04/05 00:13:08;;;;;;;16.33;13.88;;;;;;;-0.87;96.74;95821.34;6367060;22;20002;-61
2022/04/05 00:15:34;;;;;;;13.43;11.38;;;;;;;-0.85;95.77;95823.81;6367116;22;20006;-61
2022/04/05 00:18:00;;;;;;;17.15;13.65;;;;;;;-0.87;95.90;95813.56;6366855;22;20002;-61
2022/04/05 00:20:27;;;;;;;16.63;13.60;;;;;;;-0.92;96.15;95818.94;6367370;22;20002;-61
2022/04/05 00:22:53;;;;;;;13.32;11.90;;;;;;;-0.93;95.84;95813.81;6338861;22;20442;-62
2022/04/05 00:25:19;;;;;;;12.48;11.15;;;;;;;-0.95;96.43;95815.66;6367011;22;20503;-61
2022/04/05 00:27:45;;;;;;;11.98;10.77;;;;;;;-0.92;96.37;95813.78;6367022;22;20002;-62
2022/04/05 00:30:11;;;;;;;14.35;11.02;;;;;;;-0.88;95.96;95804.16;6367234;22;20469;-61
2022/04/05 00:32:37;;;;;;;21.75;13.40;;;;;;;-0.84;95.68;95807.41;6366905;22;20058;-62
2022/04/05 00:35:03;;;;;;;28.92;16.98;;;;;;;-0.87;95.17;95801.47;6366967;22;20052;-61
2022/04/05 00:37:29;;;;;;;25.67;16.02;;;;;;;-0.90;95.42;95809.38;6367395;22;20010;-61
2022/04/05 00:39:54;;;;;;;28.52;15.55;;;;;;;-0.92;95.25;95798.25;6366068;22;20445;-61
2022/04/05 00:42:20;;;;;;;30.25;15.95;;;;;;;-0.93;95.84;95795.72;6367025;22;20005;-61
2022/04/05 00:44:46;;;;;;;21.42;14.23;;;;;;;-0.98;96.04;95798.53;6366879;22;20020;-61
2022/04/05 00:47:20;;;;;;;19.40;14.65;;;;;;;-1.04;96.16;95791.91;6366679;22;20052;-62
2022/04/05 00:49:46;;;;;;;18.08;13.98;;;;;;;-1.06;96.41;95792.88;6366646;22;20079;-62
2022/04/05 00:52:17;;;;;;;21.67;13.88;;;;;;;-1.06;95.99;95787.69;6367093;22;20010;-61
2022/04/05 00:54:45;;;;;;;18.73;14.00;;;;;;;-1.09;96.82;95793.84;6366825;22;20010;-62
2022/04/05 00:57:16;;;;;;;19.90;13.52;;;;;;;-1.11;96.65;95794.81;6366733;22;20002;-61
2022/04/05 00:59:43;;;;;;;15.88;12.15;;;;;;;-1.11;96.16;95789.66;6366974;22;20021;-61
2022/04/05 01:02:17;;;;;;;16.35;12.20;;;;;;;-1.14;96.32;95788.03;6366464;22;20026;-61
2022/04/05 01:04:44;;;;;;;14.45;10.95;;;;;;;-1.18;96.69;95787.34;6366881;22;20438;-62
2022/04/05 01:07:13;;;;;;;14.95;11.73;;;;;;;-1.19;96.72;95793.41;6366796;22;20006;-62
2022/04/05 01:09:39;;;;;;;15.27;11.85;;;;;;;-1.19;96.04;95788.25;6366597;22;19994;-61
2022/04/05 01:12:07;;;;;;;13.57;11.43;;;;;;;-1.19;96.31;95782.22;6366232;22;20013;-61
2022/04/05 01:14:32;;;;;;;16.48;12.60;;;;;;;-1.21;97.28;95784.91;6367066;22;20011;-62
2022/04/05 01:16:57;;;;;;;19.00;12.85;;;;;;;-1.24;96.50;95785.00;6366828;22;20323;-62
2022/04/05 01:19:24;;;;;;;13.63;11.10;;;;;;;-1.23;96.64;95784.09;6366963;22;20021;-61
2022/04/05 01:21:50;;;;;;;15.95;12.48;;;;;;;-1.25;95.88;95778.16;6366824;22;20006;-61
2022/04/05 01:24:15;;;;;;;12.52;11.23;;;;;;;-1.24;95.99;95779.03;6367103;22;20438;-61
2022/04/05 01:26:45;;;;;;;13.77;10.80;;;;;;;-1.30;96.32;95780.13;6366861;22;20003;-62
2022/04/05 01:29:12;;;;;;;15.32;12.40;;;;;;;-1.34;96.78;95776.81;6366817;22;20002;-61
2022/04/05 01:31:39;;;;;;;17.23;13.55;;;;;;;-1.36;97.15;95775.22;6366938;22;20434;-61
2022/04/05 01:34:05;;;;;;;19.40;14.25;;;;;;;-1.37;98.20;95781.31;6366752;22;20431;-62
2022/04/05 01:36:31;;;;;;;18.40;14.48;;;;;;;-1.38;98.78;95774.47;6367875;22;20115;-62
2022/04/05 01:38:56;;;;;;;19.13;14.43;;;;;;;-1.40;98.13;95773.69;6368494;22;20037;-61
2022/04/05 01:41:22;;;;;;;28.80;21.05;;;;;;;-1.38;98.44;95771.88;6340822;22;20006;-62
2022/04/05 01:43:47;;;;;;;22.08;17.30;;;;;;;-1.40;97.83;95771.94;6368723;22;19998;-61
2022/04/05 01:46:12;;;;;;;22.73;17.13;;;;;;;-1.41;98.44;95765.09;6368476;22;20003;-62
2022/04/05 01:48:39;;;;;;;28.70;19.17;;;;;;;-1.42;98.30;95765.19;6368610;22;20025;-62
2022/04/05 01:51:05;;;;;;;25.25;17.45;;;;;;;-1.41;98.36;95759.09;6368730;22;20036;-62
2022/04/05 01:53:30;;;;;;;20.88;17.77;;;;;;;-1.41;97.21;95764.28;6368465;22;20002;-61
2022/04/05 01:55:56;;;;;;;28.52;19.15;;;;;;;-1.41;97.63;95772.00;6368208;22;20346;-61
2022/04/05 01:58:21;;;;;;;26.27;17.90;;;;;;;-1.41;97.24;95772.00;6368320;22;20006;-61
2022/04/05 02:00:49;;;;;;;21.27;17.30;;;;;;;-1.44;97.17;95767.81;6368391;22;19998;-61
2022/04/05 02:03:15;;;;;;;20.67;16.40;;;;;;;-1.46;97.02;95767.88;6367746;22;20732;-61
2022/04/05 02:05:40;;;;;;;20.63;14.68;;;;;;;-1.48;97.19;95766.28;6340674;22;20014;-62
2022/04/05 02:08:06;;;;;;;19.70;14.75;;;;;;;-1.47;97.16;95766.19;6368240;22;20003;-62
2022/04/05 02:10:31;;;;;;;16.13;13.73;;;;;;;-1.43;96.88;95764.31;6368482;22;20005;-61
2022/04/05 02:12:56;;;;;;;16.90;14.32;;;;;;;-1.46;97.45;95760.13;6367981;22;20113;-62
2022/04/05 02:15:22;;;;;;;17.00;13.43;;;;;;;-1.47;97.05;95757.63;6368221;22;20010;-62
2022/04/05 02:17:47;;;;;;;15.55;11.85;;;;;;;-1.47;96.90;95761.03;6368172;22;20511;-61
2022/04/05 02:20:13;;;;;;;17.80;13.05;;;;;;;-1.49;96.98;95762.84;6368236;22;20029;-61
2022/04/05 02:22:39;;;;;;;14.60;11.90;;;;;;;-1.47;95.73;95752.44;6368176;22;20013;-62
2022/04/05 02:25:05;;;;;;;16.42;13.10;;;;;;;-1.46;96.97;95748.97;6367970;22;20430;-61
2022/04/05 02:27:30;;;;;;;15.82;13.48;;;;;;;-1.47;97.37;95758.44;6368044;22;20457;-62
2022/04/05 02:29:56;;;;;;;13.35;11.68;;;;;;;-1.49;97.28;95752.50;6367863;22;20324;-61
2022/04/05 02:32:21;;;;;;;15.00;12.05;;;;;;;-1.53;97.45;95745.81;6368202;22;20007;-61
2022/04/05 02:34:47;;;;;;;15.15;12.38;;;;;;;-1.56;98.31;95745.09;6367629;22;20002;-62
2022/04/05 02:37:12;;;;;;;14.65;12.52;;;;;;;-1.61;98.05;95746.13;6368200;22;19998;-62
2022/04/05 02:39:38;;;;;;;16.92;12.77;;;;;;;-1.63;98.02;95736.78;6367911;22;20043;-61
2022/04/05 02:42:04;;;;;;;14.07;12.40;;;;;;;-1.62;97.77;95733.31;6368368;22;20007;-61
2022/04/05 02:44:29;;;;;;;13.90;11.85;;;;;;;-1.63;97.52;95737.63;6340129;22;20082;-61
2022/04/05 02:46:55;;;;;;;14.80;12.73;;;;;;;-1.64;98.25;95735.13;6367235;22;20387;-62
2022/04/05 02:49:20;;;;;;;14.80;11.43;;;;;;;-1.67;98.22;95740.38;6367754;22;20068;-61
2022/04/05 02:51:45;;;;;;;17.70;12.85;;;;;;;-1.70;97.97;95730.19;6367350;22;20041;-62
2022/04/05 02:54:11;;;;;;;13.52;12.10;;;;;;;-1.69;98.22;95740.47;6368268;22;20010;-61
2022/04/05 02:56:36;;;;;;;12.30;10.82;;;;;;;-1.69;97.86;95732.72;6367733;22;20022;-61
2022/04/05 02:59:02;;;;;;;13.65;11.45;;;;;;;-1.69;97.58;95729.28;6367869;22;20008;-61
2022/04/05 03:01:27;;;;;;;13.40;10.65;;;;;;;-1.68;97.77;95730.97;6367821;22;20002;-62
2022/04/05 03:03:52;;;;;;;12.55;11.13;;;;;;;-1.69;97.78;95726.72;6367621;22;20083;-61
2022/04/05 03:06:18;;;;;;;10.32;9.32;;;;;;;-1.71;97.36;95729.38;6368106;22;20077;-61
2022/04/05 03:08:43;;;;;;;12.23;10.50;;;;;;;-1.71;96.95;95725.94;6367688;22;20003;-62
2022/04/05 03:11:09;;;;;;;12.00;10.80;;;;;;;-1.70;97.50;95722.44;6366887;22;20387;-62
2022/04/05 03:13:35;;;;;;;11.45;10.15;;;;;;;-1.74;97.80;95721.75;6367714;22;20075;-62
2022/04/05 03:16:00;;;;;;;10.50;9.40;;;;;;;-1.75;97.57;95725.25;6367896;22;20041;-61
2022/04/05 03:18:26;;;;;;;10.55;9.38;;;;;;;-1.77;97.35;95722.72;6367446;22;20009;-62
2022/04/05 03:20:52;;;;;;;10.85;9.73;;;;;;;-1.78;97.58;95715.88;6367630;22;20087;-61
2022/04/05 03:23:19;;;;;;;11.70;10.52;;;;;;;-1.78;97.82;95710.72;6367832;22;20071;-62
2022/04/05 03:25:45;;;;;;;11.23;10.00;;;;;;;-1.82;98.24;95711.75;6367330;22;20006;-61
2022/04/05 03:28:10;;;;;;;10.73;9.52;;;;;;;-1.82;98.00;95701.44;6367728;22;20369;-61
2022/04/05 03:30:35;;;;;;;12.38;9.70;;;;;;;-1.86;97.88;95705.06;6367447;22;20434;-62
2022/04/05 03:33:01;;;;;;;18.80;12.52;;;;;;;-1.83;97.41;95704.06;6367569;22;20034;-61
2022/04/05 03:35:27;;;;;;;36.72;22.80;;;;;;;-1.78;97.55;95705.56;6367460;22;20063;-61
2022/04/05 03:37:52;;;;;;;38.22;26.02;;;;;;;-1.77;97.29;95701.22;6367171;22;20006;-62
2022/04/05 03:40:18;;;;;;;33.75;21.25;;;;;;;-1.80;97.81;95699.63;6366543;22;20003;-61
2022/04/05 03:42:43;;;;;;;34.08;21.40;;;;;;;-1.82;97.77;95700.59;6366825;22;20005;-61
2022/04/05 03:45:09;;;;;;;27.25;19.45;;;;;;;-1.82;97.72;95700.59;6367224;22;20006;-62
2022/04/05 03:47:34;;;;;;;25.05;17.52;;;;;;;-1.87;97.39;95693.06;6367295;22;20058;-61
2022/04/05 03:50:01;;;;;;;20.63;15.55;;;;;;;-1.90;97.95;95690.59;6366872;22;20067;-61
2022/04/05 03:52:26;;;;;;;19.38;14.57;;;;;;;-1.90;98.49;95693.16;6367073;22;20002;-62
2022/04/05 03:54:51;;;;;;;13.55;10.90;;;;;;;-1.92;98.39;95689.81;6367044;22;20380;-62
2022/04/05 03:57:17;;;;;;;16.80;12.40;;;;;;;-1.91;97.89;95691.50;6367233;22;20427;-61
2022/04/05 03:59:42;;;;;;;15.32;13.07;;;;;;;-1.93;98.10;95686.41;6365851;22;20051;-61
2022/04/05 04:02:08;;;;;;;16.13;12.88;;;;;;;-1.94;98.07;95683.88;6366764;22;20079;-62
2022/04/05 04:04:33;;;;;;;18.50;12.98;;;;;;;-1.96;97.40;95680.53;6367153;22;19998;-61
2022/04/05 04:06:59;;;;;;;15.27;12.23;;;;;;;-1.97;97.52;95684.03;6366868;22;20006;-61
2022/04/05 04:09:24;;;;;;;16.02;12.13;;;;;;;-2.00;97.49;95681.56;6367194;22;20002;-62
2022/04/05 04:11:49;;;;;;;16.33;11.50;;;;;;;-2.00;97.10;95684.16;6367050;22;20010;-62
2022/04/05 04:14:15;;;;;;;14.27;12.00;;;;;;;-2.00;97.54;95681.56;6367276;22;20089;-62
2022/04/05 04:16:41;;;;;;;13.02;10.40;;;;;;;-2.01;97.67;95685.88;6366853;22;20047;-62
2022/04/05 04:19:07;;;;;;;11.25;10.07;;;;;;;-2.01;98.80;95678.16;6339093;22;20006;-62
2022/04/05 04:21:32;;;;;;;14.35;11.15;;;;;;;-2.04;98.39;95686.88;6366601;22;20003;-62
2022/04/05 04:23:58;;;;;;;11.90;9.95;;;;;;;-2.08;98.67;95684.47;6366394;22;20007;-62
2022/04/05 04:26:23;;;;;;;15.20;10.07;;;;;;;-2.07;98.24;95691.31;6367510;22;20312;-62
2022/04/05 04:28:55;;;;;;;9.93;9.02;;;;;;;-2.09;97.78;95683.66;6367326;22;20002;-61
2022/04/05 04:31:21;;;;;;;9.85;8.80;;;;;;;-2.07;98.60;95681.00;6339070;22;20346;-62
2022/04/05 04:33:46;;;;;;;11.60;10.10;;;;;;;-2.05;98.41;95685.19;6366795;22;20002;-62
2022/04/05 04:36:12;;;;;;;11.35;10.07;;;;;;;-2.07;97.94;95688.72;6367563;22;20003;-61
2022/04/05 04:38:37;;;;;;;11.70;10.65;;;;;;;-2.11;98.11;95685.44;6367062;22;20003;-62
2022/04/05 04:41:03;;;;;;;9.95;8.95;;;;;;;-2.11;97.99;95679.44;6366978;22;20074;-62
2022/04/05 04:43:28;;;;;;;11.13;9.60;;;;;;;-2.12;97.26;95694.06;6367119;22;20032;-62
2022/04/05 04:45:54;;;;;;;14.10;11.65;;;;;;;-2.09;97.85;95687.97;6366651;22;20406;-62
2022/04/05 04:48:20;;;;;;;12.82;11.32;;;;;;;-2.07;98.13;95689.59;6367021;22;20029;-62
2022/04/05 04:50:47;;;;;;;12.75;11.43;;;;;;;-2.06;97.72;95693.00;6366807;22;20007;-62
2022/04/05 04:53:12;;;;;;;11.55;10.30;;;;;;;-2.11;97.68;95695.75;6367079;22;20494;-62
2022/04/05 04:55:38;;;;;;;13.20;10.50;;;;;;;-2.10;97.91;95686.28;6366984;22;20042;-62
2022/04/05 04:58:03;;;;;;;11.25;10.23;;;;;;;-2.16;98.47;95690.81;6367477;22;20380;-62
2022/04/05 05:00:29;;;;;;;11.68;10.45;;;;;;;-2.18;97.40;95692.63;6366614;22;20034;-62
2022/04/05 05:02:54;;;;;;;11.70;10.50;;;;;;;-2.18;98.46;95691.75;6366891;22;20010;-62
2022/04/05 05:05:21;;;;;;;12.38;10.18;;;;;;;-2.15;98.33;95686.47;6367023;22;20006;-62
2022/04/05 05:07:47;;;;;;;10.95;9.82;;;;;;;-2.14;97.98;95688.16;6366811;22;19999;-62
2022/04/05 05:10:14;;;;;;;10.68;9.27;;;;;;;-2.14;97.83;95685.56;6367135;22;20051;-61
2022/04/05 05:12:40;;;;;;;10.80;9.70;;;;;;;-2.11;97.34;95684.63;6368909;22;20078;-62
2022/04/05 05:15:15;;;;;;;11.95;9.45;;;;;;;-2.09;97.46;95681.06;6368700;22;20591;-62
2022/04/05 05:17:41;;;;;;;11.52;9.80;;;;;;;-2.09;98.25;95675.06;6368990;22;20025;-62
2022/04/05 05:20:07;;;;;;;10.60;9.60;;;;;;;-2.11;98.79;95680.28;6368364;22;20003;-62
2022/04/05 05:22:32;;;;;;;10.82;9.70;;;;;;;-2.11;99.42;95675.13;6368407;22;20006;-62
2022/04/05 05:24:58;;;;;;;11.70;9.43;;;;;;;-2.07;99.20;95670.66;6368755;22;20453;-62
2022/04/05 05:27:23;;;;;;;10.38;9.38;;;;;;;-2.08;99.49;95680.16;6368968;22;19998;-62
2022/04/05 05:29:49;;;;;;;20.65;16.15;;;;;;;-2.05;99.42;95672.28;6368766;22;20047;-61
2022/04/05 05:32:14;;;;;;;20.88;15.05;;;;;;;-2.01;99.23;95680.72;6366716;22;20010;-62
2022/04/05 05:34:40;;;;;;;25.33;16.48;;;;;;;-1.98;99.07;95675.47;6367546;22;20006;-62
2022/04/05 05:37:05;;;;;;;24.67;14.77;;;;;;;-1.93;99.04;95675.25;6367718;22;20006;-62
2022/04/05 05:39:32;;;;;;;16.85;13.35;;;;;;;-1.88;98.86;95671.56;6367142;22;20021;-62
2022/04/05 05:41:58;;;;;;;20.13;13.45;;;;;;;-1.82;98.79;95680.78;6366833;22;19998;-62
2022/04/05 05:44:24;;;;;;;20.35;14.57;;;;;;;-1.73;98.42;95680.38;6367099;22;20150;-62
2022/04/05 05:46:50;;;;;;;23.30;14.88;;;;;;;-1.60;99.04;95682.44;6366673;22;20032;-62
2022/04/05 05:49:15;;;;;;;32.72;21.70;;;;;;;-1.50;98.98;95685.44;6365343;22;20594;-62
2022/04/05 05:51:41;;;;;;;28.63;17.35;;;;;;;-1.43;99.01;95686.03;6367805;22;20346;-60
2022/04/05 05:54:06;;;;;;;31.52;20.40;;;;;;;-1.36;99.24;95684.81;6368257;22;20009;-63
2022/04/05 05:56:32;;;;;;;31.35;20.85;;;;;;;-1.27;99.34;95691.31;6368855;22;20013;-63
2022/04/05 05:58:57;;;;;;;27.15;19.13;;;;;;;-1.17;99.23;95688.25;6368370;22;20066;-63
2022/04/05 06:01:23;;;;;;;30.48;19.75;;;;;;;-1.10;99.25;95687.97;6368452;22;20008;-62
2022/04/05 06:03:49;;;;;;;22.83;16.30;;;;;;;-1.05;99.35;95686.84;6367703;22;20024;-63
2022/04/05 06:06:14;;;;;;;29.10;17.15;;;;;;;-0.93;99.13;95693.19;6368232;22;20002;-63
2022/04/05 06:08:40;;;;;;;17.83;14.63;;;;;;;-0.82;98.95;95691.84;6367970;22;19999;-63
2022/04/05 06:11:07;;;;;;;16.92;11.68;;;;;;;-0.68;98.54;95688.59;6368532;22;20051;-64
2022/04/05 06:13:33;;;;;;;14.60;10.32;;;;;;;-0.70;97.96;95686.09;6368030;22;20050;-63
2022/04/05 06:15:58;;;;;;;13.07;10.50;;;;;;;-0.62;98.54;95694.31;6367987;22;20006;-63
2022/04/05 06:18:24;;;;;;;14.32;11.15;;;;;;;-0.60;99.46;95691.66;6339345;22;20010;-63
2022/04/05 06:20:49;;;;;;;17.90;11.65;;;;;;;-0.48;99.33;95690.25;6367719;22;20413;-63
2022/04/05 06:23:14;;;;;;;17.15;11.75;;;;;;;-0.33;98.72;95697.25;6368304;22;20009;-63
2022/04/05 06:25:40;;;;;;;16.25;12.15;;;;;;;-0.17;98.13;95693.91;6366604;22;20494;-63
2022/04/05 06:28:07;;;;;;;15.05;12.52;;;;;;;-0.06;97.65;95694.22;6367477;22;20454;-61
2022/04/05 06:30:35;;;;;;;15.07;12.07;;;;;;;0.10;98.73;95696.88;6366582;22;20098;-61
2022/04/05 06:33:07;;;;;;;16.33;12.68;;;;;;;0.23;97.80;95698.84;6367397;22;20009;-61
2022/04/05 06:35:34;;;;;;;14.63;11.80;;;;;;;0.33;97.12;95692.25;6368106;22;20610;-61
2022/04/05 06:37:59;;;;;;;14.40;11.52;;;;;;;0.51;97.50;95690.47;6367874;22;19998;-61
2022/04/05 06:40:25;;;;;;;12.55;11.10;;;;;;;0.70;96.03;95684.31;6368149;22;20002;-62
2022/04/05 06:42:50;;;;;;;13.20;11.88;;;;;;;0.87;94.47;95687.75;6366731;22;20503;-62
2022/04/05 06:45:20;;;;;;;11.82;10.65;;;;;;;1.05;93.13;95688.53;6368046;22;20025;-61
2022/04/05 06:47:47;;;;;;;12.57;9.65;;;;;;;1.29;92.84;95692.34;6367941;22;20452;-61
2022/04/05 06:50:14;;;;;;;11.15;9.80;;;;;;;1.51;90.62;95685.16;6367717;22;20021;-61
2022/04/05 06:52:41;;;;;;;11.30;8.88;;;;;;;1.68;92.20;95692.81;6368290;22;20006;-61
2022/04/05 06:55:08;;;;;;;9.25;8.35;;;;;;;1.86;90.44;95682.28;6367985;22;20466;-62
2022/04/05 06:57:34;;;;;;;10.48;9.38;;;;;;;2.11;91.48;95693.88;6368028;22;19998;-62
2022/04/05 07:00:00;;;;;;;10.05;8.38;;;;;;;2.28;89.71;95685.88;6367831;22;20001;-61
2022/04/05 07:02:25;;;;;;;10.38;9.27;;;;;;;2.63;89.30;95684.69;6367914;22;20029;-62
2022/04/05 07:04:50;;;;;;;12.55;9.65;;;;;;;3.11;89.12;95684.38;6368265;22;20002;-61
2022/04/05 07:07:17;;;;;;;19.38;13.15;;;;;;;3.38;85.18;95680.13;6368286;22;20422;-61
2022/04/05 07:09:43;;;;;;;27.17;16.20;;;;;;;3.39;85.79;95681.78;6367463;22;20006;-61
2022/04/05 07:12:09;;;;;;;25.65;17.90;;;;;;;3.35;85.64;95685.53;6367987;22;20009;-61
2022/04/05 07:14:34;;;;;;;22.52;17.30;;;;;;;3.47;86.66;95678.72;6367712;22;20051;-61
2022/04/05 07:17:00;;;;;;;18.08;13.15;;;;;;;3.98;82.96;95678.03;6367719;22;20307;-61
2022/04/05 07:19:25;;;;;;;12.93;11.15;;;;;;;4.32;81.51;95677.53;6367764;22;20011;-62
2022/04/05 07:21:51;;;;;;;7.80;7.10;;;;;;;4.65;77.37;95670.94;6367633;22;20006;-62
2022/04/05 07:24:16;;;;;;;9.02;8.13;;;;;;;4.87;73.96;95676.34;6367808;22;20005;-61
2022/04/05 07:26:42;;;;;;;9.63;8.73;;;;;;;4.96;73.14;95681.84;6367440;22;20011;-61
2022/04/05 07:29:07;;;;;;;13.45;10.27;;;;;;;4.95;73.17;95667.97;6367994;22;20009;-61
2022/04/05 07:31:33;;;;;;;13.35;8.35;;;;;;;5.55;73.57;95665.47;6367496;22;19999;-62
2022/04/05 07:33:58;;;;;;;10.00;8.95;;;;;;;6.36;70.08;95663.97;6367014;22;20006;-61
2022/04/05 07:36:23;;;;;;;9.60;8.27;;;;;;;7.42;68.31;95659.28;6367792;22;20074;-59
2022/04/05 07:38:49;;;;;;;11.20;8.50;;;;;;;7.92;64.61;95658.75;6367287;22;20048;-62
2022/04/05 07:41:14;;;;;;;8.45;7.35;;;;;;;8.27;63.29;95660.22;6367833;22;20073;-59
2022/04/05 07:43:40;;;;;;;7.32;6.55;;;;;;;8.66;57.93;95653.56;6367396;22;20098;-62
2022/04/05 07:46:05;;;;;;;8.35;7.55;;;;;;;8.79;56.02;95650.72;6367144;22;19998;-59
2022/04/05 07:48:31;;;;;;;7.45;5.93;;;;;;;8.93;60.29;95650.38;6367231;22;20014;-59
2022/04/05 07:50:57;;;;;;;6.55;5.95;;;;;;;9.09;56.93;95646.41;6367186;22;20006;-59
2022/04/05 07:53:23;;;;;;;5.68;5.03;;;;;;;8.72;59.70;95637.28;6339827;22;20034;-59
2022/04/05 07:55:48;;;;;;;5.35;4.90;;;;;;;9.49;57.17;95634.19;6367001;22;20040;-59
2022/04/05 07:58:13;;;;;;;5.55;4.20;;;;;;;9.02;57.67;95639.06;6367529;22;20006;-59
2022/04/05 08:00:39;;;;;;;4.35;3.95;;;;;;;9.79;54.63;95640.28;6339594;22;20009;-59
2022/04/05 08:03:05;;;;;;;4.20;3.80;;;;;;;9.58;55.73;95630.72;6367185;22;19998;-59
2022/04/05 08:05:30;;;;;;;3.60;3.40;;;;;;;9.75;55.63;95631.84;6367300;22;20006;-59
2022/04/05 08:07:56;;;;;;;3.20;3.00;;;;;;;9.92;53.80;95632.94;6367357;22;20002;-59
2022/04/05 08:10:22;;;;;;;3.67;3.40;;;;;;;10.20;52.92;95627.78;6367445;22;20187;-59
2022/04/05 08:12:50;;;;;;;3.78;2.33;;;;;;;10.23;51.59;95626.69;6366975;22;20003;-59
2022/04/05 08:15:20;;;;;;;2.20;2.10;;;;;;;10.39;51.15;95621.69;6367195;22;20006;-59
2022/04/05 08:17:46;;;;;;;2.63;2.47;;;;;;;10.71;49.50;95620.50;6367352;22;20022;-59
2022/04/05 08:20:13;;;;;;;3.08;2.85;;;;;;;9.80;49.38;95624.38;6367712;22;20004;-59
2022/04/05 08:22:40;;;;;;;2.80;2.60;;;;;;;9.23;51.47;95621.56;6367467;22;20021;-59
2022/04/05 08:25:06;;;;;;;3.20;2.95;;;;;;;9.75;50.05;95621.34;6367103;22;19998;-59
2022/04/05 08:27:33;;;;;;;2.67;2.47;;;;;;;10.25;51.10;95611.59;6367289;22;19998;-59
2022/04/05 08:29:58;;;;;;;2.95;2.53;;;;;;;10.80;47.22;95610.88;6367062;22;20002;-59
2022/04/05 08:32:23;;;;;;;3.47;3.28;;;;;;;10.37;47.42;95620.97;6367164;22;20040;-59
2022/04/05 08:34:49;;;;;;;3.83;3.53;;;;;;;10.93;46.29;95617.59;6339233;22;20046;-59
2022/04/05 08:37:14;;;;;;;3.55;3.35;;;;;;;11.25;46.44;95609.25;6367098;22;20003;-59
2022/04/05 08:39:40;;;;;;;6.35;3.47;;;;;;;11.36;45.33;95605.59;6367023;22;20017;-59
2022/04/05 08:42:07;;;;;;;4.13;3.83;;;;;;;11.48;46.59;95613.28;6367298;22;20003;-59
2022/04/05 08:44:32;;;;;;;3.50;3.30;;;;;;;11.65;45.30;95607.19;6367867;22;20500;-60
2022/04/05 08:47:03;;;;;;;6.38;5.18;;;;;;;11.24;42.69;95618.13;6341276;22;20037;-60
2022/04/05 08:49:30;;;;;;;4.85;4.45;;;;;;;11.65;43.95;95615.13;6369001;22;20014;-59
2022/04/05 08:51:55;;;;;;;4.80;4.40;;;;;;;11.79;41.85;95613.75;6368815;22;20072;-60
2022/04/05 08:54:21;;;;;;;4.30;4.00;;;;;;;11.40;43.85;95606.97;6369496;22;20450;-59
2022/04/05 08:56:50;;;;;;;5.03;4.63;;;;;;;12.31;43.87;95614.84;6369240;22;20068;-60
2022/04/05 08:59:16;;;;;;;4.00;3.78;;;;;;;12.35;40.93;95604.81;6369230;22;20028;-59
2022/04/05 09:01:41;;;;;;;4.90;4.60;;;;;;;11.53;42.37;95614.50;6369161;22;20002;-59
2022/04/05 09:04:06;;;;;;;4.75;4.45;;;;;;;12.65;41.52;95607.94;6368821;22;20013;-59
2022/04/05 09:06:34;;;;;;;4.68;4.28;;;;;;;11.90;40.18;95612.69;6369059;22;20037;-60
2022/04/05 09:09:16;;;;;;;4.43;3.75;;;;;;;12.02;39.69;95611.47;6369053;22;20002;-59
2022/04/05 09:11:52;;;;;;;4.05;3.85;;;;;;;12.15;42.00;95608.44;6369218;22;20061;-60
2022/04/05 09:14:29;;;;;;;3.90;3.60;;;;;;;12.63;43.28;95609.91;6369238;22;20063;-59
2022/04/05 09:17:09;;;;;;;5.90;3.65;;;;;;;13.29;41.05;95610.19;6368616;22;20006;-59
2022/04/05 09:19:42;;;;;;;3.75;3.45;;;;;;;13.09;38.07;95602.53;6369268;22;20085;-59
2022/04/05 09:22:07;;;;;;;4.05;3.75;;;;;;;13.50;40.01;95606.31;6368885;22;20029;-59
2022/04/05 09:24:35;;;;;;;3.38;3.17;;;;;;;13.89;38.17;95600.41;6369048;22;20442;-59
2022/04/05 09:27:00;;;;;;;3.40;3.20;;;;;;;14.67;38.18;95597.31;6369193;22;20006;-59
2022/04/05 09:29:49;;;;;;;3.03;2.83;;;;;;;14.69;35.18;95592.69;6368677;22;20578;-59
2022/04/05 09:32:36;;;;;;;3.15;2.95;;;;;;;13.97;36.39;95599.59;6368850;22;20017;-59
2022/04/05 09:35:03;;;;;;;3.25;3.05;;;;;;;14.43;37.36;95585.78;6368633;22;20030;-59
2022/04/05 09:37:28;;;;;;;5.63;5.10;;;;;;;14.53;38.25;95589.09;6368532;22;20002;-60
2022/04/05 09:40:13;;;;;;;4.90;4.50;;;;;;;14.49;38.40;95577.19;6368888;22;20073;-59
2022/04/05 09:42:57;;;;;;;4.28;3.97;;;;;;;14.21;38.33;95574.91;6368763;22;19999;-59
2022/04/05 09:45:41;;;;;;;5.18;4.53;;;;;;;14.58;37.74;95576.16;6368973;22;20010;-59
2022/04/05 09:48:08;;;;;;;4.28;3.97;;;;;;;14.84;37.58;95569.81;6368391;22;20027;-59
2022/04/05 09:51:01;;;;;;;5.72;4.15;;;;;;;15.16;34.43;95570.69;6368318;22;20347;-59
2022/04/05 09:53:40;;;;;;;4.55;4.22;;;;;;;14.04;37.19;95569.66;6368522;22;20013;-59
2022/04/05 09:56:12;;;;;;;4.40;4.00;;;;;;;13.87;36.27;95579.38;6368367;22;20510;-60
2022/04/05 09:58:53;;;;;;;5.05;4.20;;;;;;;14.22;37.63;95576.56;6368511;22;20037;-59
2022/04/05 10:01:21;;;;;;;4.82;4.43;;;;;;;14.51;35.21;95572.56;6368593;22;19999;-59
2022/04/05 10:04:09;;;;;;;4.97;4.57;;;;;;;14.63;35.63;95577.47;6368362;22;19998;-59
2022/04/05 10:06:38;;;;;;;4.25;3.95;;;;;;;15.80;33.52;95563.47;6368240;22;20009;-59
2022/04/05 10:09:04;;;;;;;6.28;5.63;;;;;;;15.07;35.87;95568.25;6368227;22;20480;-58
2022/04/05 10:11:32;;;;;;;4.32;4.03;;;;;;;14.90;36.15;95565.66;6368324;22;20002;-59
2022/04/05 10:13:59;;;;;;;6.00;5.40;;;;;;;15.06;36.72;95567.41;6368432;22;20083;-59
2022/04/05 10:16:26;;;;;;;5.95;5.35;;;;;;;15.18;36.64;95566.03;6368439;22;20373;-59
2022/04/05 10:18:57;;;;;;;5.22;4.75;;;;;;;14.54;38.10;95566.91;6368081;22;19995;-60
2022/04/05 10:21:29;;;;;;;5.05;4.60;;;;;;;13.91;37.34;95566.66;6368179;22;20006;-59
2022/04/05 10:23:56;;;;;;;8.07;4.82;;;;;;;14.22;40.15;95555.38;6368001;22;19995;-60
2022/04/05 10:26:30;;;;;;;5.57;5.07;;;;;;;15.84;35.25;95558.63;6368320;22;20427;-60
2022/04/05 10:29:03;;;;;;;6.57;5.32;;;;;;;15.50;35.27;95554.56;6367635;22;20040;-59
2022/04/05 10:31:41;;;;;;;5.10;4.75;;;;;;;15.09;37.85;95551.16;6368162;22;20002;-60
2022/04/05 10:34:19;;;;;;;6.18;5.25;;;;;;;14.72;37.04;95542.06;6367804;22;20006;-60
2022/04/05 10:37:28;;;;;;;6.07;5.60;;;;;;;14.61;39.77;95538.72;6367940;22;20029;-60
2022/04/05 10:39:56;;;;;;;6.45;5.95;;;;;;;14.94;39.29;95547.59;6368025;22;20003;-60
2022/04/05 10:42:25;;;;;;;6.45;5.90;;;;;;;15.55;36.38;95541.59;6368110;22;20007;-59
2022/04/05 10:45:22;;;;;;;6.85;6.15;;;;;;;15.21;36.65;95537.50;6367772;22;20002;-60
2022/04/05 10:48:12;;;;;;;5.90;5.38;;;;;;;15.57;35.29;95542.22;6368390;22;20055;-59
2022/04/05 10:50:39;;;;;;;6.47;5.88;;;;;;;15.59;33.90;95540.25;6367836;22;20018;-59
2022/04/05 10:53:13;;;;;;;7.82;5.80;;;;;;;14.71;36.23;95540.41;6367880;22;20522;-59
2022/04/05 10:56:12;;;;;;;6.43;5.13;;;;;;;15.14;37.42;95526.75;6367711;22;20343;-59
2022/04/05 10:58:41;;;;;;;5.70;5.20;;;;;;;16.02;32.97;95523.84;6281893;22;20511;-59
2022/04/05 11:01:39;;;;;;;5.43;4.93;;;;;;;15.53;35.68;95525.03;6368079;22;19998;-59
2022/04/05 11:04:20;;;;;;;5.40;4.70;;;;;;;15.53;34.05;95520.56;6353684;22;20085;-59
2022/04/05 11:07:07;;;;;;;6.18;5.28;;;;;;;15.55;35.51;95512.41;6367746;22;19999;-59
2022/04/05 11:09:40;;;;;;;6.30;5.38;;;;;;;15.64;36.39;95510.50;6339418;22;20034;-59
2022/04/05 11:12:11;;;;;;;7.22;5.18;;;;;;;15.68;34.72;95504.69;6367456;22;20022;-60
2022/04/05 11:14:42;;;;;;;5.32;4.78;;;;;;;16.45;33.84;95512.59;6367688;22;20011;-59
2022/04/05 11:17:10;;;;;;;6.47;5.75;;;;;;;15.53;35.76;95503.78;6367648;22;20006;-59
2022/04/05 11:19:36;;;;;;;5.85;5.35;;;;;;;16.03;33.83;95504.25;6367798;22;20384;-60
2022/04/05 11:22:24;;;;;;;6.28;5.68;;;;;;;16.12;33.50;95507.66;6367673;22;20017;-60
2022/04/05 11:24:50;;;;;;;5.38;4.95;;;;;;;15.61;35.29;95501.09;6367565;22;20010;-60
2022/04/05 11:27:29;;;;;;;6.85;5.80;;;;;;;16.01;32.08;95496.44;6368014;22;20002;-60